sensor_id;sensor_type;location;lat;lon;timestamp;P1;durP1;ratioP1;P2;durP2;ratioP2
54460;SDS011;40371;49.414;11.010;2023-04-03T00:01:01;1.80;;;1.70;;
54460;SDS011;40371;49.414;11.010;2023-04-03T00:03:27;3.83;;;1.73;;
54460;SDS011;40371;49.414;11.010;2023-04-03T00:05:53;1.70;;;1.60;;
54460;SDS011;40371;49.414;11.010;2023-04-03T00:08:19;2.07;;;1.70;;
54460;SDS011;40371;49.414;11.010;2023-04-03T00:10:45;2.80;;;1.57;;
54460;SDS011;40371;49.414;11.010;2023-04-03T00:13:11;1.50;;;1.40;;
54460;SDS011;40371;49.414;11.010;2023-04-03T00:15:37;1.60;;;1.50;;
54460;SDS011;40371;49.414;11.010;2023-04-03T00:18:03;1.97;;;1.50;;
54460;SDS011;40371;49.414;11.010;2023-04-03T00:20:29;1.80;;;1.70;;
54460;SDS011;40371;49.414;11.010;2023-04-03T00:22:55;1.83;;;1.67;;
54460;SDS011;40371;49.414;11.010;2023-04-03T00:25:21;1.57;;;1.47;;
54460;SDS011;40371;49.414;11.010;2023-04-03T00:27:47;1.60;;;1.50;;
54460;SDS011;40371;49.414;11.010;2023-04-03T00:30:14;1.87;;;1.60;;
54460;SDS011;40371;49.414;11.010;2023-04-03T00:32:41;1.43;;;1.33;;
54460;SDS011;40371;49.414;11.010;2023-04-03T00:35:07;1.50;;;1.40;;
54460;SDS011;40371;49.414;11.010;2023-04-03T00:37:33;1.53;;;1.43;;
54460;SDS011;40371;49.414;11.010;2023-04-03T00:39:58;1.80;;;1.70;;
54460;SDS011;40371;49.414;11.010;2023-04-03T00:42:24;2.40;;;1.73;;
54460;SDS011;40371;49.414;11.010;2023-04-03T00:47:22;1.40;;;1.30;;
54460;SDS011;40371;49.414;11.010;2023-04-03T00:49:48;1.63;;;1.53;;
54460;SDS011;40371;49.414;11.010;2023-04-03T00:52:16;1.30;;;1.20;;
54460;SDS011;40371;49.414;11.010;2023-04-03T00:54:45;1.60;;;1.50;;
54460;SDS011;40371;49.414;11.010;2023-04-03T00:57:13;1.50;;;1.40;;
54460;SDS011;40371;49.414;11.010;2023-04-03T00:59:42;1.83;;;1.60;;
54460;SDS011;40371;49.414;11.010;2023-04-03T01:02:11;1.60;;;1.50;;
54460;SDS011;40371;49.414;11.010;2023-04-03T01:04:38;2.27;;;1.50;;
54460;SDS011;40371;49.414;11.010;2023-04-03T01:09:40;1.50;;;1.40;;
54460;SDS011;40371;49.414;11.010;2023-04-03T01:12:14;2.57;;;1.50;;
54460;SDS011;40371;49.414;11.010;2023-04-03T01:14:51;1.83;;;1.73;;
54460;SDS011;40371;49.414;11.010;2023-04-03T01:19:52;2.03;;;1.50;;
54460;SDS011;40371;49.414;11.010;2023-04-03T01:22:50;1.50;;;1.40;;
54460;SDS011;40371;49.414;11.010;2023-04-03T01:25:22;1.50;;;1.40;;
54460;SDS011;40371;49.414;11.010;2023-04-03T01:27:49;1.60;;;1.50;;
54460;SDS011;40371;49.414;11.010;2023-04-03T01:30:16;1.70;;;1.60;;
54460;SDS011;40371;49.414;11.010;2023-04-03T01:32:43;3.80;;;1.57;;
54460;SDS011;40371;49.414;11.010;2023-04-03T01:35:11;1.90;;;1.40;;
54460;SDS011;40371;49.414;11.010;2023-04-03T01:37:37;1.43;;;1.33;;
54460;SDS011;40371;49.414;11.010;2023-04-03T01:40:03;1.50;;;1.40;;
54460;SDS011;40371;49.414;11.010;2023-04-03T01:42:31;1.40;;;1.30;;
54460;SDS011;40371;49.414;11.010;2023-04-03T01:44:56;1.60;;;1.50;;
54460;SDS011;40371;49.414;11.010;2023-04-03T01:47:22;1.60;;;1.50;;
54460;SDS011;40371;49.414;11.010;2023-04-03T01:49:48;2.10;;;1.60;;
54460;SDS011;40371;49.414;11.010;2023-04-03T01:52:13;1.60;;;1.50;;
54460;SDS011;40371;49.414;11.010;2023-04-03T01:54:39;1.57;;;1.47;;
54460;SDS011;40371;49.414;11.010;2023-04-03T01:57:04;1.63;;;1.40;;
54460;SDS011;40371;49.414;11.010;2023-04-03T01:59:30;1.73;;;1.63;;
54460;SDS011;40371;49.414;11.010;2023-04-03T02:01:56;1.53;;;1.43;;
54460;SDS011;40371;49.414;11.010;2023-04-03T02:04:21;1.50;;;1.40;;
54460;SDS011;40371;49.414;11.010;2023-04-03T02:06:47;1.70;;;1.60;;
54460;SDS011;40371;49.414;11.010;2023-04-03T02:09:13;1.33;;;1.23;;
54460;SDS011;40371;49.414;11.010;2023-04-03T02:11:39;2.63;;;1.90;;
54460;SDS011;40371;49.414;11.010;2023-04-03T02:14:04;2.97;;;1.60;;
54460;SDS011;40371;49.414;11.010;2023-04-03T02:16:31;1.53;;;1.43;;
54460;SDS011;40371;49.414;11.010;2023-04-03T02:18:56;1.60;;;1.50;;
54460;SDS011;40371;49.414;11.010;2023-04-03T02:21:22;1.30;;;1.30;;
54460;SDS011;40371;49.414;11.010;2023-04-03T02:23:48;2.27;;;1.57;;
54460;SDS011;40371;49.414;11.010;2023-04-03T02:26:15;1.60;;;1.50;;
54460;SDS011;40371;49.414;11.010;2023-04-03T02:28:44;1.90;;;1.50;;
54460;SDS011;40371;49.414;11.010;2023-04-03T02:31:09;1.83;;;1.50;;
54460;SDS011;40371;49.414;11.010;2023-04-03T02:33:36;2.47;;;1.53;;
54460;SDS011;40371;49.414;11.010;2023-04-03T02:36:03;1.47;;;1.37;;
54460;SDS011;40371;49.414;11.010;2023-04-03T02:38:30;1.60;;;1.50;;
54460;SDS011;40371;49.414;11.010;2023-04-03T02:41:00;2.07;;;1.40;;
54460;SDS011;40371;49.414;11.010;2023-04-03T02:43:27;1.57;;;1.40;;
54460;SDS011;40371;49.414;11.010;2023-04-03T02:45:53;1.80;;;1.70;;
54460;SDS011;40371;49.414;11.010;2023-04-03T02:48:19;3.47;;;1.70;;
54460;SDS011;40371;49.414;11.010;2023-04-03T02:50:44;2.07;;;1.77;;
54460;SDS011;40371;49.414;11.010;2023-04-03T02:53:10;1.43;;;1.33;;
54460;SDS011;40371;49.414;11.010;2023-04-03T02:55:35;1.50;;;1.40;;
54460;SDS011;40371;49.414;11.010;2023-04-03T02:58:01;2.10;;;1.70;;
54460;SDS011;40371;49.414;11.010;2023-04-03T03:00:26;1.40;;;1.30;;
54460;SDS011;40371;49.414;11.010;2023-04-03T03:02:52;1.67;;;1.50;;
54460;SDS011;40371;49.414;11.010;2023-04-03T03:05:18;2.43;;;1.90;;
54460;SDS011;40371;49.414;11.010;2023-04-03T03:07:44;1.50;;;1.40;;
54460;SDS011;40371;49.414;11.010;2023-04-03T03:10:09;1.90;;;1.57;;
54460;SDS011;40371;49.414;11.010;2023-04-03T03:12:35;2.00;;;1.80;;
54460;SDS011;40371;49.414;11.010;2023-04-03T03:15:01;1.60;;;1.50;;
54460;SDS011;40371;49.414;11.010;2023-04-03T03:17:26;2.00;;;1.70;;
54460;SDS011;40371;49.414;11.010;2023-04-03T03:19:52;2.47;;;1.60;;
54460;SDS011;40371;49.414;11.010;2023-04-03T03:22:17;1.77;;;1.63;;
54460;SDS011;40371;49.414;11.010;2023-04-03T03:24:43;1.60;;;1.50;;
54460;SDS011;40371;49.414;11.010;2023-04-03T03:27:09;1.80;;;1.70;;
54460;SDS011;40371;49.414;11.010;2023-04-03T03:29:35;1.70;;;1.60;;
54460;SDS011;40371;49.414;11.010;2023-04-03T03:32:02;2.03;;;1.50;;
54460;SDS011;40371;49.414;11.010;2023-04-03T03:34:28;2.53;;;1.70;;
54460;SDS011;40371;49.414;11.010;2023-04-03T03:36:53;2.40;;;1.93;;
54460;SDS011;40371;49.414;11.010;2023-04-03T03:39:20;1.97;;;1.87;;
54460;SDS011;40371;49.414;11.010;2023-04-03T03:41:46;2.20;;;2.00;;
54460;SDS011;40371;49.414;11.010;2023-04-03T03:44:12;3.27;;;1.80;;
54460;SDS011;40371;49.414;11.010;2023-04-03T03:46:38;1.80;;;1.70;;
54460;SDS011;40371;49.414;11.010;2023-04-03T03:49:04;1.70;;;1.60;;
54460;SDS011;40371;49.414;11.010;2023-04-03T03:51:30;2.17;;;2.00;;
54460;SDS011;40371;49.414;11.010;2023-04-03T03:53:56;1.70;;;1.60;;
54460;SDS011;40371;49.414;11.010;2023-04-03T03:56:22;2.67;;;1.90;;
54460;SDS011;40371;49.414;11.010;2023-04-03T03:58:48;2.33;;;2.13;;
54460;SDS011;40371;49.414;11.010;2023-04-03T04:01:14;3.27;;;2.07;;
54460;SDS011;40371;49.414;11.010;2023-04-03T04:03:45;2.43;;;2.20;;
54460;SDS011;40371;49.414;11.010;2023-04-03T04:06:15;2.67;;;1.90;;
54460;SDS011;40371;49.414;11.010;2023-04-03T04:08:41;3.53;;;2.30;;
54460;SDS011;40371;49.414;11.010;2023-04-03T04:11:09;2.97;;;2.03;;
54460;SDS011;40371;49.414;11.010;2023-04-03T04:13:36;2.17;;;1.87;;
54460;SDS011;40371;49.414;11.010;2023-04-03T04:16:02;2.83;;;2.27;;
54460;SDS011;40371;49.414;11.010;2023-04-03T04:18:29;2.73;;;1.93;;
54460;SDS011;40371;49.414;11.010;2023-04-03T04:20:54;2.70;;;1.80;;
54460;SDS011;40371;49.414;11.010;2023-04-03T04:23:21;3.43;;;2.13;;
54460;SDS011;40371;49.414;11.010;2023-04-03T04:25:48;2.23;;;1.63;;
54460;SDS011;40371;49.414;11.010;2023-04-03T04:28:15;2.20;;;2.00;;
54460;SDS011;40371;49.414;11.010;2023-04-03T04:30:41;6.47;;;2.47;;
54460;SDS011;40371;49.414;11.010;2023-04-03T04:33:07;3.47;;;1.93;;
54460;SDS011;40371;49.414;11.010;2023-04-03T04:35:33;2.70;;;2.50;;
54460;SDS011;40371;49.414;11.010;2023-04-03T04:38:00;4.63;;;2.40;;
54460;SDS011;40371;49.414;11.010;2023-04-03T04:40:26;3.63;;;2.17;;
54460;SDS011;40371;49.414;11.010;2023-04-03T04:42:52;5.67;;;2.60;;
54460;SDS011;40371;49.414;11.010;2023-04-03T04:45:19;2.50;;;1.90;;
54460;SDS011;40371;49.414;11.010;2023-04-03T04:47:46;4.03;;;2.70;;
54460;SDS011;40371;49.414;11.010;2023-04-03T04:50:11;3.80;;;2.30;;
54460;SDS011;40371;49.414;11.010;2023-04-03T04:52:38;3.83;;;2.60;;
54460;SDS011;40371;49.414;11.010;2023-04-03T04:55:05;4.37;;;2.43;;
54460;SDS011;40371;49.414;11.010;2023-04-03T04:57:31;2.47;;;2.20;;
54460;SDS011;40371;49.414;11.010;2023-04-03T04:59:58;2.60;;;2.40;;
54460;SDS011;40371;49.414;11.010;2023-04-03T05:02:23;3.23;;;2.73;;
54460;SDS011;40371;49.414;11.010;2023-04-03T05:04:49;3.63;;;2.10;;
54460;SDS011;40371;49.414;11.010;2023-04-03T05:07:20;2.07;;;1.77;;
54460;SDS011;40371;49.414;11.010;2023-04-03T05:09:46;2.93;;;2.10;;
54460;SDS011;40371;49.414;11.010;2023-04-03T05:12:13;2.33;;;2.13;;
54460;SDS011;40371;49.414;11.010;2023-04-03T05:14:45;4.60;;;2.50;;
54460;SDS011;40371;49.414;11.010;2023-04-03T05:17:11;2.63;;;2.30;;
54460;SDS011;40371;49.414;11.010;2023-04-03T05:19:39;4.07;;;3.10;;
54460;SDS011;40371;49.414;11.010;2023-04-03T05:22:07;2.63;;;2.43;;
54460;SDS011;40371;49.414;11.010;2023-04-03T05:24:33;2.97;;;2.40;;
54460;SDS011;40371;49.414;11.010;2023-04-03T05:26:59;2.70;;;2.10;;
54460;SDS011;40371;49.414;11.010;2023-04-03T05:29:26;10.17;;;4.17;;
54460;SDS011;40371;49.414;11.010;2023-04-03T05:31:52;4.50;;;3.60;;
54460;SDS011;40371;49.414;11.010;2023-04-03T05:34:17;3.23;;;2.87;;
54460;SDS011;40371;49.414;11.010;2023-04-03T05:36:46;3.07;;;2.30;;
54460;SDS011;40371;49.414;11.010;2023-04-03T05:39:13;2.60;;;2.30;;
54460;SDS011;40371;49.414;11.010;2023-04-03T05:41:41;5.17;;;3.40;;
54460;SDS011;40371;49.414;11.010;2023-04-03T05:44:07;5.03;;;4.03;;
54460;SDS011;40371;49.414;11.010;2023-04-03T05:46:32;12.47;;;6.17;;
54460;SDS011;40371;49.414;11.010;2023-04-03T05:49:02;7.43;;;5.20;;
54460;SDS011;40371;49.414;11.010;2023-04-03T05:51:32;5.30;;;2.90;;
54460;SDS011;40371;49.414;11.010;2023-04-03T05:54:08;6.70;;;4.87;;
54460;SDS011;40371;49.414;11.010;2023-04-03T05:56:39;3.87;;;3.00;;
54460;SDS011;40371;49.414;11.010;2023-04-03T05:59:05;4.13;;;2.57;;
54460;SDS011;40371;49.414;11.010;2023-04-03T06:01:31;6.57;;;3.10;;
54460;SDS011;40371;49.414;11.010;2023-04-03T06:03:56;3.23;;;2.50;;
54460;SDS011;40371;49.414;11.010;2023-04-03T06:06:23;4.50;;;2.60;;
54460;SDS011;40371;49.414;11.010;2023-04-03T06:08:49;3.87;;;2.47;;
54460;SDS011;40371;49.414;11.010;2023-04-03T06:11:15;5.80;;;3.80;;
54460;SDS011;40371;49.414;11.010;2023-04-03T06:13:41;6.07;;;2.43;;
54460;SDS011;40371;49.414;11.010;2023-04-03T06:16:08;4.10;;;2.87;;
54460;SDS011;40371;49.414;11.010;2023-04-03T06:18:39;3.57;;;2.40;;
54460;SDS011;40371;49.414;11.010;2023-04-03T06:21:05;2.97;;;2.60;;
54460;SDS011;40371;49.414;11.010;2023-04-03T06:23:32;6.90;;;4.07;;
54460;SDS011;40371;49.414;11.010;2023-04-03T06:25:58;6.00;;;3.80;;
54460;SDS011;40371;49.414;11.010;2023-04-03T06:28:24;8.87;;;5.43;;
54460;SDS011;40371;49.414;11.010;2023-04-03T06:30:50;10.40;;;5.73;;
54460;SDS011;40371;49.414;11.010;2023-04-03T06:33:15;5.20;;;2.83;;
54460;SDS011;40371;49.414;11.010;2023-04-03T06:35:41;4.73;;;2.90;;
54460;SDS011;40371;49.414;11.010;2023-04-03T06:38:07;3.27;;;2.60;;
54460;SDS011;40371;49.414;11.010;2023-04-03T06:40:34;2.50;;;2.30;;
54460;SDS011;40371;49.414;11.010;2023-04-03T06:43:00;4.63;;;2.10;;
54460;SDS011;40371;49.414;11.010;2023-04-03T06:45:26;2.60;;;1.97;;
54460;SDS011;40371;49.414;11.010;2023-04-03T06:47:52;2.73;;;2.43;;
54460;SDS011;40371;49.414;11.010;2023-04-03T06:50:18;3.00;;;2.23;;
54460;SDS011;40371;49.414;11.010;2023-04-03T06:52:44;3.00;;;1.83;;
54460;SDS011;40371;49.414;11.010;2023-04-03T06:55:10;8.27;;;2.90;;
54460;SDS011;40371;49.414;11.010;2023-04-03T06:57:36;4.37;;;2.80;;
54460;SDS011;40371;49.414;11.010;2023-04-03T07:00:03;2.30;;;2.10;;
54460;SDS011;40371;49.414;11.010;2023-04-03T07:02:30;2.50;;;2.30;;
54460;SDS011;40371;49.414;11.010;2023-04-03T07:04:56;5.20;;;2.63;;
54460;SDS011;40371;49.414;11.010;2023-04-03T07:07:22;3.00;;;2.17;;
54460;SDS011;40371;49.414;11.010;2023-04-03T07:09:47;2.60;;;2.40;;
54460;SDS011;40371;49.414;11.010;2023-04-03T07:12:14;3.77;;;2.67;;
54460;SDS011;40371;49.414;11.010;2023-04-03T07:14:41;5.63;;;2.83;;
54460;SDS011;40371;49.414;11.010;2023-04-03T07:17:06;4.47;;;2.50;;
54460;SDS011;40371;49.414;11.010;2023-04-03T07:19:32;5.67;;;2.73;;
54460;SDS011;40371;49.414;11.010;2023-04-03T07:21:57;4.23;;;2.53;;
54460;SDS011;40371;49.414;11.010;2023-04-03T07:24:23;3.90;;;2.57;;
54460;SDS011;40371;49.414;11.010;2023-04-03T07:26:49;4.57;;;2.60;;
54460;SDS011;40371;49.414;11.010;2023-04-03T07:29:16;3.83;;;2.70;;
54460;SDS011;40371;49.414;11.010;2023-04-03T07:31:42;2.53;;;2.33;;
54460;SDS011;40371;49.414;11.010;2023-04-03T07:34:08;4.60;;;2.43;;
54460;SDS011;40371;49.414;11.010;2023-04-03T07:36:33;3.13;;;2.47;;
54460;SDS011;40371;49.414;11.010;2023-04-03T07:38:59;4.37;;;3.03;;
54460;SDS011;40371;49.414;11.010;2023-04-03T07:41:25;3.07;;;2.77;;
54460;SDS011;40371;49.414;11.010;2023-04-03T07:43:50;1.77;;;1.67;;
54460;SDS011;40371;49.414;11.010;2023-04-03T07:46:17;2.63;;;2.10;;
54460;SDS011;40371;49.414;11.010;2023-04-03T07:48:42;2.53;;;1.93;;
54460;SDS011;40371;49.414;11.010;2023-04-03T07:51:09;2.90;;;2.03;;
54460;SDS011;40371;49.414;11.010;2023-04-03T07:53:35;3.60;;;2.33;;
54460;SDS011;40371;49.414;11.010;2023-04-03T07:56:01;4.83;;;2.43;;
54460;SDS011;40371;49.414;11.010;2023-04-03T07:58:27;3.93;;;2.40;;
54460;SDS011;40371;49.414;11.010;2023-04-03T08:00:54;2.80;;;2.50;;
54460;SDS011;40371;49.414;11.010;2023-04-03T08:03:19;3.67;;;2.30;;
54460;SDS011;40371;49.414;11.010;2023-04-03T08:05:46;2.73;;;2.33;;
54460;SDS011;40371;49.414;11.010;2023-04-03T08:08:14;3.63;;;2.00;;
54460;SDS011;40371;49.414;11.010;2023-04-03T08:10:47;2.03;;;1.60;;
54460;SDS011;40371;49.414;11.010;2023-04-03T08:13:17;2.97;;;2.10;;
54460;SDS011;40371;49.414;11.010;2023-04-03T08:15:43;2.90;;;2.40;;
54460;SDS011;40371;49.414;11.010;2023-04-03T08:18:09;3.53;;;2.10;;
54460;SDS011;40371;49.414;11.010;2023-04-03T08:20:35;3.70;;;2.43;;
54460;SDS011;40371;49.414;11.010;2023-04-03T08:23:03;4.50;;;2.73;;
54460;SDS011;40371;49.414;11.010;2023-04-03T08:25:29;4.07;;;2.30;;
54460;SDS011;40371;49.414;11.010;2023-04-03T08:27:54;3.17;;;2.00;;
54460;SDS011;40371;49.414;11.010;2023-04-03T08:30:20;3.20;;;2.77;;
54460;SDS011;40371;49.414;11.010;2023-04-03T08:32:46;4.30;;;3.33;;
54460;SDS011;40371;49.414;11.010;2023-04-03T08:35:12;5.33;;;4.50;;
54460;SDS011;40371;49.414;11.010;2023-04-03T08:37:40;4.03;;;2.20;;
54460;SDS011;40371;49.414;11.010;2023-04-03T08:40:07;3.53;;;3.07;;
54460;SDS011;40371;49.414;11.010;2023-04-03T08:47:46;2.63;;;1.93;;
54460;SDS011;40371;49.414;11.010;2023-04-03T08:50:24;3.10;;;2.33;;
54460;SDS011;40371;49.414;11.010;2023-04-03T08:52:58;2.87;;;1.70;;
54460;SDS011;40371;49.414;11.010;2023-04-03T08:55:34;2.00;;;1.90;;
54460;SDS011;40371;49.414;11.010;2023-04-03T09:01:41;2.53;;;2.00;;
54460;SDS011;40371;49.414;11.010;2023-04-03T09:03:45;7.28;;;5.93;;
54460;SDS011;40371;49.414;11.010;2023-04-03T09:06:12;2.78;;;2.40;;
54460;SDS011;40371;49.414;11.010;2023-04-03T09:15:15;1.90;;;1.75;;
54460;SDS011;40371;49.414;11.010;2023-04-03T09:22:59;1.55;;;1.42;;
54460;SDS011;40371;49.414;11.010;2023-04-03T09:25:25;3.30;;;1.60;;
54460;SDS011;40371;49.414;11.010;2023-04-03T09:27:57;3.50;;;1.67;;
54460;SDS011;40371;49.414;11.010;2023-04-03T09:30:25;1.77;;;1.67;;
54460;SDS011;40371;49.414;11.010;2023-04-03T09:32:52;2.50;;;1.47;;
54460;SDS011;40371;49.414;11.010;2023-04-03T09:35:21;1.93;;;1.43;;
54460;SDS011;40371;49.414;11.010;2023-04-03T09:37:53;4.37;;;1.63;;
54460;SDS011;40371;49.414;11.010;2023-04-03T09:43:02;2.43;;;1.80;;
54460;SDS011;40371;49.414;11.010;2023-04-03T09:45:42;3.53;;;2.00;;
54460;SDS011;40371;49.414;11.010;2023-04-03T09:50:37;2.03;;;1.83;;
54460;SDS011;40371;49.414;11.010;2023-04-03T09:58:40;1.93;;;1.67;;
54460;SDS011;40371;49.414;11.010;2023-04-03T10:01:27;2.87;;;1.87;;
54460;SDS011;40371;49.414;11.010;2023-04-03T10:06:43;1.83;;;1.63;;
54460;SDS011;40371;49.414;11.010;2023-04-03T10:09:18;3.73;;;2.00;;
54460;SDS011;40371;49.414;11.010;2023-04-03T10:12:03;2.00;;;1.57;;
54460;SDS011;40371;49.414;11.010;2023-04-03T10:14:30;2.23;;;1.70;;
54460;SDS011;40371;49.414;11.010;2023-04-03T10:22:44;2.00;;;1.70;;
54460;SDS011;40371;49.414;11.010;2023-04-03T10:27:55;1.60;;;1.50;;
54460;SDS011;40371;49.414;11.010;2023-04-03T10:41:47;2.47;;;1.50;;
54460;SDS011;40371;49.414;11.010;2023-04-03T10:47:24;3.40;;;2.00;;
54460;SDS011;40371;49.414;11.010;2023-04-03T10:50:22;2.93;;;1.80;;
54460;SDS011;40371;49.414;11.010;2023-04-03T10:58:17;1.73;;;1.33;;
54460;SDS011;40371;49.414;11.010;2023-04-03T11:00:54;2.17;;;1.80;;
54460;SDS011;40371;49.414;11.010;2023-04-03T11:03:29;2.47;;;1.90;;
54460;SDS011;40371;49.414;11.010;2023-04-03T11:05:59;1.80;;;1.70;;
54460;SDS011;40371;49.414;11.010;2023-04-03T11:08:33;3.33;;;1.80;;
54460;SDS011;40371;49.414;11.010;2023-04-03T11:11:17;2.60;;;1.67;;
54460;SDS011;40371;49.414;11.010;2023-04-03T11:13:51;3.40;;;1.70;;
54460;SDS011;40371;49.414;11.010;2023-04-03T11:16:25;2.20;;;1.60;;
54460;SDS011;40371;49.414;11.010;2023-04-03T11:19:10;2.30;;;1.50;;
54460;SDS011;40371;49.414;11.010;2023-04-03T11:21:42;1.73;;;1.60;;
54460;SDS011;40371;49.414;11.010;2023-04-03T11:24:20;5.43;;;1.77;;
54460;SDS011;40371;49.414;11.010;2023-04-03T11:26:50;1.93;;;1.50;;
54460;SDS011;40371;49.414;11.010;2023-04-03T11:29:19;2.73;;;1.73;;
54460;SDS011;40371;49.414;11.010;2023-04-03T11:32:08;1.70;;;1.60;;
54460;SDS011;40371;49.414;11.010;2023-04-03T11:34:56;1.70;;;1.60;;
54460;SDS011;40371;49.414;11.010;2023-04-03T11:37:33;2.47;;;2.07;;
54460;SDS011;40371;49.414;11.010;2023-04-03T11:42:41;2.97;;;2.10;;
54460;SDS011;40371;49.414;11.010;2023-04-03T11:47:58;2.07;;;1.40;;
54460;SDS011;40371;49.414;11.010;2023-04-03T12:11:13;2.10;;;1.67;;
54460;SDS011;40371;49.414;11.010;2023-04-03T12:16:21;1.60;;;1.37;;
54460;SDS011;40371;49.414;11.010;2023-04-03T12:21:22;3.03;;;1.50;;
54460;SDS011;40371;49.414;11.010;2023-04-03T12:29:23;1.20;;;1.10;;
54460;SDS011;40371;49.414;11.010;2023-04-03T12:46:47;3.43;;;3.13;;
54460;SDS011;40371;49.414;11.010;2023-04-03T12:49:22;2.67;;;1.87;;
54460;SDS011;40371;49.414;11.010;2023-04-03T12:51:51;4.10;;;2.40;;
54460;SDS011;40371;49.414;11.010;2023-04-03T12:54:29;1.60;;;1.47;;
54460;SDS011;40371;49.414;11.010;2023-04-03T12:57:12;3.23;;;1.97;;
54460;SDS011;40371;49.414;11.010;2023-04-03T12:59:42;1.53;;;1.10;;
54460;SDS011;40371;49.414;11.010;2023-04-03T13:02:20;3.33;;;1.47;;
54460;SDS011;40371;49.414;11.010;2023-04-03T13:04:51;2.17;;;1.30;;
54460;SDS011;40371;49.414;11.010;2023-04-03T13:07:23;1.33;;;1.23;;
54460;SDS011;40371;49.414;11.010;2023-04-03T13:09:57;1.57;;;1.47;;
54460;SDS011;40371;49.414;11.010;2023-04-03T13:12:25;1.50;;;1.40;;
54460;SDS011;40371;49.414;11.010;2023-04-03T13:14:52;4.00;;;3.17;;
54460;SDS011;40371;49.414;11.010;2023-04-03T13:17:20;2.30;;;2.07;;
54460;SDS011;40371;49.414;11.010;2023-04-03T13:19:47;3.20;;;1.50;;
54460;SDS011;40371;49.414;11.010;2023-04-03T13:25:04;1.50;;;1.40;;
54460;SDS011;40371;49.414;11.010;2023-04-03T13:27:34;2.73;;;1.70;;
54460;SDS011;40371;49.414;11.010;2023-04-03T13:30:01;1.50;;;1.20;;
54460;SDS011;40371;49.414;11.010;2023-04-03T13:32:28;1.40;;;1.30;;
54460;SDS011;40371;49.414;11.010;2023-04-03T13:34:55;2.43;;;1.70;;
54460;SDS011;40371;49.414;11.010;2023-04-03T13:37:26;2.13;;;1.40;;
54460;SDS011;40371;49.414;11.010;2023-04-03T13:40:12;2.73;;;1.43;;
54460;SDS011;40371;49.414;11.010;2023-04-03T13:42:39;4.93;;;1.40;;
54460;SDS011;40371;49.414;11.010;2023-04-03T13:47:45;1.83;;;1.53;;
54460;SDS011;40371;49.414;11.010;2023-04-03T13:58:31;3.07;;;1.77;;
54460;SDS011;40371;49.414;11.010;2023-04-03T14:01:09;3.63;;;1.67;;
54460;SDS011;40371;49.414;11.010;2023-04-03T14:06:12;2.50;;;1.80;;
54460;SDS011;40371;49.414;11.010;2023-04-03T14:08:40;1.60;;;1.40;;
54460;SDS011;40371;49.414;11.010;2023-04-03T14:11:08;1.40;;;1.30;;
54460;SDS011;40371;49.414;11.010;2023-04-03T14:13:55;1.77;;;1.30;;
54460;SDS011;40371;49.414;11.010;2023-04-03T14:16:26;1.77;;;1.40;;
54460;SDS011;40371;49.414;11.010;2023-04-03T14:18:54;1.80;;;1.67;;
54460;SDS011;40371;49.414;11.010;2023-04-03T14:21:21;2.00;;;1.80;;
54460;SDS011;40371;49.414;11.010;2023-04-03T14:23:47;1.70;;;1.60;;
54460;SDS011;40371;49.414;11.010;2023-04-03T14:26:15;2.67;;;1.50;;
54460;SDS011;40371;49.414;11.010;2023-04-03T14:28:49;1.83;;;1.40;;
54460;SDS011;40371;49.414;11.010;2023-04-03T14:31:18;2.60;;;1.60;;
54460;SDS011;40371;49.414;11.010;2023-04-03T14:33:46;4.17;;;1.80;;
54460;SDS011;40371;49.414;11.010;2023-04-03T14:36:20;2.63;;;1.70;;
54460;SDS011;40371;49.414;11.010;2023-04-03T14:38:47;2.27;;;1.70;;
54460;SDS011;40371;49.414;11.010;2023-04-03T14:41:15;1.60;;;1.48;;
54460;SDS011;40371;49.414;11.010;2023-04-03T14:43:43;4.20;;;1.37;;
54460;SDS011;40371;49.414;11.010;2023-04-03T14:46:12;1.90;;;1.23;;
54460;SDS011;40371;49.414;11.010;2023-04-03T14:48:40;1.97;;;1.60;;
54460;SDS011;40371;49.414;11.010;2023-04-03T14:51:06;2.07;;;1.53;;
54460;SDS011;40371;49.414;11.010;2023-04-03T14:53:31;3.27;;;2.37;;
54460;SDS011;40371;49.414;11.010;2023-04-03T14:55:57;2.13;;;1.70;;
54460;SDS011;40371;49.414;11.010;2023-04-03T14:58:23;3.77;;;1.43;;
54460;SDS011;40371;49.414;11.010;2023-04-03T15:00:49;2.10;;;1.50;;
54460;SDS011;40371;49.414;11.010;2023-04-03T15:03:15;1.53;;;1.37;;
54460;SDS011;40371;49.414;11.010;2023-04-03T15:05:43;2.40;;;1.53;;
54460;SDS011;40371;49.414;11.010;2023-04-03T15:08:24;2.63;;;2.07;;
54460;SDS011;40371;49.414;11.010;2023-04-03T15:10:52;2.03;;;1.40;;
54460;SDS011;40371;49.414;11.010;2023-04-03T15:13:18;2.40;;;1.60;;
54460;SDS011;40371;49.414;11.010;2023-04-03T15:15:44;1.77;;;1.47;;
54460;SDS011;40371;49.414;11.010;2023-04-03T15:18:11;1.90;;;1.43;;
54460;SDS011;40371;49.414;11.010;2023-04-03T15:20:41;1.50;;;1.40;;
54460;SDS011;40371;49.414;11.010;2023-04-03T15:23:08;1.47;;;1.37;;
54460;SDS011;40371;49.414;11.010;2023-04-03T15:25:35;2.20;;;1.57;;
54460;SDS011;40371;49.414;11.010;2023-04-03T15:28:01;2.77;;;1.50;;
54460;SDS011;40371;49.414;11.010;2023-04-03T15:30:27;1.40;;;1.30;;
54460;SDS011;40371;49.414;11.010;2023-04-03T15:32:52;1.80;;;1.70;;
54460;SDS011;40371;49.414;11.010;2023-04-03T15:35:18;1.63;;;1.30;;
54460;SDS011;40371;49.414;11.010;2023-04-03T15:37:44;2.63;;;1.57;;
54460;SDS011;40371;49.414;11.010;2023-04-03T15:40:10;1.63;;;1.40;;
54460;SDS011;40371;49.414;11.010;2023-04-03T15:42:36;1.40;;;1.30;;
54460;SDS011;40371;49.414;11.010;2023-04-03T15:45:02;2.67;;;2.00;;
54460;SDS011;40371;49.414;11.010;2023-04-03T15:47:28;4.43;;;2.07;;
54460;SDS011;40371;49.414;11.010;2023-04-03T15:49:54;4.50;;;1.83;;
54460;SDS011;40371;49.414;11.010;2023-04-03T15:52:20;1.73;;;1.57;;
54460;SDS011;40371;49.414;11.010;2023-04-03T15:54:46;4.73;;;1.90;;
54460;SDS011;40371;49.414;11.010;2023-04-03T15:57:11;3.33;;;1.97;;
54460;SDS011;40371;49.414;11.010;2023-04-03T15:59:37;2.30;;;1.60;;
54460;SDS011;40371;49.414;11.010;2023-04-03T16:02:03;1.67;;;1.43;;
54460;SDS011;40371;49.414;11.010;2023-04-03T16:04:32;1.40;;;1.30;;
54460;SDS011;40371;49.414;11.010;2023-04-03T16:07:00;7.63;;;6.17;;
54460;SDS011;40371;49.414;11.010;2023-04-03T16:09:27;2.70;;;1.90;;
54460;SDS011;40371;49.414;11.010;2023-04-03T16:11:53;4.80;;;1.70;;
54460;SDS011;40371;49.414;11.010;2023-04-03T16:14:19;2.20;;;1.83;;
54460;SDS011;40371;49.414;11.010;2023-04-03T16:16:45;1.37;;;1.30;;
54460;SDS011;40371;49.414;11.010;2023-04-03T16:19:10;1.63;;;1.47;;
54460;SDS011;40371;49.414;11.010;2023-04-03T16:21:36;1.83;;;1.43;;
54460;SDS011;40371;49.414;11.010;2023-04-03T16:24:02;3.37;;;1.63;;
54460;SDS011;40371;49.414;11.010;2023-04-03T16:26:28;1.70;;;1.40;;
54460;SDS011;40371;49.414;11.010;2023-04-03T16:28:54;1.93;;;1.60;;
54460;SDS011;40371;49.414;11.010;2023-04-03T16:31:20;1.50;;;1.40;;
54460;SDS011;40371;49.414;11.010;2023-04-03T16:33:46;1.37;;;1.27;;
54460;SDS011;40371;49.414;11.010;2023-04-03T16:36:12;2.20;;;1.70;;
54460;SDS011;40371;49.414;11.010;2023-04-03T16:38:38;3.20;;;1.90;;
54460;SDS011;40371;49.414;11.010;2023-04-03T16:41:03;1.80;;;1.40;;
54460;SDS011;40371;49.414;11.010;2023-04-03T16:43:32;2.63;;;1.50;;
54460;SDS011;40371;49.414;11.010;2023-04-03T16:45:58;2.67;;;1.70;;
54460;SDS011;40371;49.414;11.010;2023-04-03T16:48:24;1.90;;;1.60;;
54460;SDS011;40371;49.414;11.010;2023-04-03T16:50:50;1.60;;;1.50;;
54460;SDS011;40371;49.414;11.010;2023-04-03T16:53:18;1.23;;;1.13;;
54460;SDS011;40371;49.414;11.010;2023-04-03T16:55:45;2.80;;;1.70;;